sensor_id;sensor_type;location;lat;lon;timestamp;temperature;humidity
20349;DHT22;10332;50.208;18.988;2023-03-01T00:01:43;-0.10;63.90
20349;DHT22;10332;50.208;18.988;2023-03-01T00:04:11;0.00;63.40
20349;DHT22;10332;50.208;18.988;2023-03-01T00:06:38;0.00;62.50
20349;DHT22;10332;50.208;18.988;2023-03-01T00:09:05;0.00;61.30
20349;DHT22;10332;50.208;18.988;2023-03-01T00:11:33;0.00;64.50
20349;DHT22;10332;50.208;18.988;2023-03-01T00:14:02;0.00;62.30
20349;DHT22;10332;50.208;18.988;2023-03-01T00:16:50;0.00;65.50
20349;DHT22;10332;50.208;18.988;2023-03-01T00:19:18;-0.10;67.80
20349;DHT22;10332;50.208;18.988;2023-03-01T00:21:47;-0.20;69.00
20349;DHT22;10332;50.208;18.988;2023-03-01T00:24:15;-0.20;70.60
20349;DHT22;10332;50.208;18.988;2023-03-01T00:26:43;-0.30;70.50
20349;DHT22;10332;50.208;18.988;2023-03-01T00:29:10;-0.30;70.50
20349;DHT22;10332;50.208;18.988;2023-03-01T00:31:38;-0.30;69.40
20349;DHT22;10332;50.208;18.988;2023-03-01T00:34:06;-0.30;68.20
20349;DHT22;10332;50.208;18.988;2023-03-01T00:36:36;-0.20;67.40
20349;DHT22;10332;50.208;18.988;2023-03-01T00:39:07;-0.20;66.40
20349;DHT22;10332;50.208;18.988;2023-03-01T00:41:39;-0.20;65.30
20349;DHT22;10332;50.208;18.988;2023-03-01T00:44:07;-0.20;65.10
20349;DHT22;10332;50.208;18.988;2023-03-01T00:46:34;-0.10;65.10
20349;DHT22;10332;50.208;18.988;2023-03-01T00:49:02;-0.10;64.70
20349;DHT22;10332;50.208;18.988;2023-03-01T00:51:32;-0.10;63.70
20349;DHT22;10332;50.208;18.988;2023-03-01T00:54:01;-0.10;63.20
20349;DHT22;10332;50.208;18.988;2023-03-01T00:56:30;-0.10;63.10
20349;DHT22;10332;50.208;18.988;2023-03-01T00:58:58;-0.10;63.80
20349;DHT22;10332;50.208;18.988;2023-03-01T01:01:28;-0.20;63.20
20349;DHT22;10332;50.208;18.988;2023-03-01T01:04:00;-0.20;63.20
20349;DHT22;10332;50.208;18.988;2023-03-01T01:06:32;-0.20;63.80
20349;DHT22;10332;50.208;18.988;2023-03-01T01:09:05;-0.20;63.20
20349;DHT22;10332;50.208;18.988;2023-03-01T01:11:34;-0.20;63.50
20349;DHT22;10332;50.208;18.988;2023-03-01T01:14:03;-0.30;64.20
20349;DHT22;10332;50.208;18.988;2023-03-01T01:16:31;-0.30;64.60
20349;DHT22;10332;50.208;18.988;2023-03-01T01:19:00;-0.30;64.10
20349;DHT22;10332;50.208;18.988;2023-03-01T01:21:28;-0.30;63.50
20349;DHT22;10332;50.208;18.988;2023-03-01T01:23:56;-0.30;63.30
20349;DHT22;10332;50.208;18.988;2023-03-01T01:26:30;-0.20;63.40
20349;DHT22;10332;50.208;18.988;2023-03-01T01:29:00;-0.30;63.70
20349;DHT22;10332;50.208;18.988;2023-03-01T01:31:31;-0.30;64.80
20349;DHT22;10332;50.208;18.988;2023-03-01T01:34:01;-0.40;64.90
20349;DHT22;10332;50.208;18.988;2023-03-01T01:36:30;-0.40;64.00
20349;DHT22;10332;50.208;18.988;2023-03-01T01:38:59;-0.40;63.90
20349;DHT22;10332;50.208;18.988;2023-03-01T01:41:28;-0.40;63.60
20349;DHT22;10332;50.208;18.988;2023-03-01T01:44:21;-0.40;63.40
20349;DHT22;10332;50.208;18.988;2023-03-01T01:47:11;-0.40;63.90
20349;DHT22;10332;50.208;18.988;2023-03-01T01:49:48;-0.40;63.80
20349;DHT22;10332;50.208;18.988;2023-03-01T01:55:00;-0.40;64.00
20349;DHT22;10332;50.208;18.988;2023-03-01T01:57:53;-0.40;64.00
20349;DHT22;10332;50.208;18.988;2023-03-01T02:00:26;-0.50;63.70
20349;DHT22;10332;50.208;18.988;2023-03-01T02:03:05;-0.50;63.50
20349;DHT22;10332;50.208;18.988;2023-03-01T02:05:57;-0.50;63.70
20349;DHT22;10332;50.208;18.988;2023-03-01T02:08:36;-0.60;63.90
20349;DHT22;10332;50.208;18.988;2023-03-01T02:11:06;-0.60;64.70
20349;DHT22;10332;50.208;18.988;2023-03-01T02:13:35;-0.60;64.80
20349;DHT22;10332;50.208;18.988;2023-03-01T02:16:11;-0.60;65.40
20349;DHT22;10332;50.208;18.988;2023-03-01T02:18:42;-0.60;65.80
20349;DHT22;10332;50.208;18.988;2023-03-01T02:23:41;-0.70;67.00
20349;DHT22;10332;50.208;18.988;2023-03-01T02:28:45;-0.70;67.20
20349;DHT22;10332;50.208;18.988;2023-03-01T02:31:17;-0.70;67.20
20349;DHT22;10332;50.208;18.988;2023-03-01T02:34:05;-0.70;67.10
20349;DHT22;10332;50.208;18.988;2023-03-01T02:36:36;-0.70;66.80
20349;DHT22;10332;50.208;18.988;2023-03-01T02:39:10;-0.70;66.50
20349;DHT22;10332;50.208;18.988;2023-03-01T02:41:48;-0.70;66.50
20349;DHT22;10332;50.208;18.988;2023-03-01T02:44:19;-0.70;66.90
20349;DHT22;10332;50.208;18.988;2023-03-01T02:46:53;-0.70;67.20
20349;DHT22;10332;50.208;18.988;2023-03-01T02:49:29;-0.70;68.00
20349;DHT22;10332;50.208;18.988;2023-03-01T02:55:04;-0.90;69.40
20349;DHT22;10332;50.208;18.988;2023-03-01T02:57:38;-0.90;68.90
20349;DHT22;10332;50.208;18.988;2023-03-01T03:00:12;-0.90;68.70
20349;DHT22;10332;50.208;18.988;2023-03-01T03:02:48;-0.90;70.80
20349;DHT22;10332;50.208;18.988;2023-03-01T03:05:22;-1.00;70.50
20349;DHT22;10332;50.208;18.988;2023-03-01T03:07:54;-1.00;70.00
20349;DHT22;10332;50.208;18.988;2023-03-01T03:10:25;-1.00;69.90
20349;DHT22;10332;50.208;18.988;2023-03-01T03:13:00;-0.90;70.20
20349;DHT22;10332;50.208;18.988;2023-03-01T03:15:29;-0.90;71.90
20349;DHT22;10332;50.208;18.988;2023-03-01T03:17:58;-1.00;73.60
20349;DHT22;10332;50.208;18.988;2023-03-01T03:20:27;-1.10;74.00
20349;DHT22;10332;50.208;18.988;2023-03-01T03:22:56;-1.10;73.50
20349;DHT22;10332;50.208;18.988;2023-03-01T03:25:29;-1.10;74.60
20349;DHT22;10332;50.208;18.988;2023-03-01T03:27:57;-1.10;74.90
20349;DHT22;10332;50.208;18.988;2023-03-01T03:30:30;-1.10;77.40
20349;DHT22;10332;50.208;18.988;2023-03-01T03:32:59;-1.20;76.80
20349;DHT22;10332;50.208;18.988;2023-03-01T03:35:34;-1.20;77.40
20349;DHT22;10332;50.208;18.988;2023-03-01T03:38:08;-1.20;77.60
20349;DHT22;10332;50.208;18.988;2023-03-01T03:40:45;-1.20;76.90
20349;DHT22;10332;50.208;18.988;2023-03-01T03:43:22;-1.20;76.00
20349;DHT22;10332;50.208;18.988;2023-03-01T03:45:51;-1.10;76.00
20349;DHT22;10332;50.208;18.988;2023-03-01T03:48:19;-1.10;75.70
20349;DHT22;10332;50.208;18.988;2023-03-01T03:50:49;-1.10;76.70
20349;DHT22;10332;50.208;18.988;2023-03-01T03:53:18;-1.10;77.20
20349;DHT22;10332;50.208;18.988;2023-03-01T03:55:47;-1.10;77.80
20349;DHT22;10332;50.208;18.988;2023-03-01T03:58:20;-1.20;77.20
20349;DHT22;10332;50.208;18.988;2023-03-01T04:00:52;-1.20;77.60
20349;DHT22;10332;50.208;18.988;2023-03-01T04:03:24;-1.20;78.80
20349;DHT22;10332;50.208;18.988;2023-03-01T04:05:53;-1.30;80.90
20349;DHT22;10332;50.208;18.988;2023-03-01T04:08:22;-1.30;81.40
20349;DHT22;10332;50.208;18.988;2023-03-01T04:10:53;-1.40;82.10
20349;DHT22;10332;50.208;18.988;2023-03-01T04:13:24;-1.50;82.40
20349;DHT22;10332;50.208;18.988;2023-03-01T04:15:53;-1.40;81.90
20349;DHT22;10332;50.208;18.988;2023-03-01T04:18:23;-1.40;81.80
20349;DHT22;10332;50.208;18.988;2023-03-01T04:20:53;-1.40;81.30
20349;DHT22;10332;50.208;18.988;2023-03-01T04:23:22;-1.40;81.30
20349;DHT22;10332;50.208;18.988;2023-03-01T04:25:51;-1.40;81.00
20349;DHT22;10332;50.208;18.988;2023-03-01T04:28:32;-1.40;82.00
20349;DHT22;10332;50.208;18.988;2023-03-01T04:31:06;-1.40;82.70
20349;DHT22;10332;50.208;18.988;2023-03-01T04:33:46;-1.40;83.60
20349;DHT22;10332;50.208;18.988;2023-03-01T04:36:24;-1.50;84.00
20349;DHT22;10332;50.208;18.988;2023-03-01T04:38:54;-1.50;84.50
20349;DHT22;10332;50.208;18.988;2023-03-01T04:41:24;-1.50;86.20
20349;DHT22;10332;50.208;18.988;2023-03-01T04:43:51;-1.60;86.00
20349;DHT22;10332;50.208;18.988;2023-03-01T04:46:20;-1.50;85.70
20349;DHT22;10332;50.208;18.988;2023-03-01T04:48:55;-1.50;85.00
20349;DHT22;10332;50.208;18.988;2023-03-01T04:51:23;-1.50;84.00
20349;DHT22;10332;50.208;18.988;2023-03-01T04:53:50;-1.40;83.60
20349;DHT22;10332;50.208;18.988;2023-03-01T04:56:18;-1.50;84.30
20349;DHT22;10332;50.208;18.988;2023-03-01T04:58:46;-1.50;85.30
20349;DHT22;10332;50.208;18.988;2023-03-01T05:01:16;-1.50;85.60
20349;DHT22;10332;50.208;18.988;2023-03-01T05:03:50;-1.50;85.30
20349;DHT22;10332;50.208;18.988;2023-03-01T05:06:20;-1.50;85.00
20349;DHT22;10332;50.208;18.988;2023-03-01T05:08:48;-1.50;84.30
20349;DHT22;10332;50.208;18.988;2023-03-01T05:11:16;-1.40;83.50
20349;DHT22;10332;50.208;18.988;2023-03-01T05:13:43;-1.40;83.90
20349;DHT22;10332;50.208;18.988;2023-03-01T05:16:11;-1.40;84.00
20349;DHT22;10332;50.208;18.988;2023-03-01T05:18:39;-1.40;83.20
20349;DHT22;10332;50.208;18.988;2023-03-01T05:21:11;-1.40;82.80
20349;DHT22;10332;50.208;18.988;2023-03-01T05:23:40;-1.40;81.90
20349;DHT22;10332;50.208;18.988;2023-03-01T05:26:08;-1.40;81.20
20349;DHT22;10332;50.208;18.988;2023-03-01T05:28:53;-1.30;80.70
20349;DHT22;10332;50.208;18.988;2023-03-01T05:31:26;-1.30;80.00
20349;DHT22;10332;50.208;18.988;2023-03-01T05:33:54;-1.30;79.60
20349;DHT22;10332;50.208;18.988;2023-03-01T05:36:22;-1.30;79.20
20349;DHT22;10332;50.208;18.988;2023-03-01T05:38:49;-1.30;79.20
20349;DHT22;10332;50.208;18.988;2023-03-01T05:41:17;-1.30;79.60
20349;DHT22;10332;50.208;18.988;2023-03-01T05:43:44;-1.30;79.30
20349;DHT22;10332;50.208;18.988;2023-03-01T05:46:12;-1.30;79.20
20349;DHT22;10332;50.208;18.988;2023-03-01T05:48:42;-1.20;78.60
20349;DHT22;10332;50.208;18.988;2023-03-01T05:51:10;-1.10;78.80
20349;DHT22;10332;50.208;18.988;2023-03-01T05:53:38;-1.10;77.70
20349;DHT22;10332;50.208;18.988;2023-03-01T05:56:06;-1.00;77.00
20349;DHT22;10332;50.208;18.988;2023-03-01T05:58:34;-1.00;76.30
20349;DHT22;10332;50.208;18.988;2023-03-01T06:01:01;-0.90;75.70
20349;DHT22;10332;50.208;18.988;2023-03-01T06:03:29;-0.90;75.40
20349;DHT22;10332;50.208;18.988;2023-03-01T06:05:57;-0.90;75.20
20349;DHT22;10332;50.208;18.988;2023-03-01T06:08:25;-0.90;75.00
20349;DHT22;10332;50.208;18.988;2023-03-01T06:10:54;-0.80;74.60
20349;DHT22;10332;50.208;18.988;2023-03-01T06:13:22;-0.70;74.50
20349;DHT22;10332;50.208;18.988;2023-03-01T06:15:50;-0.70;73.90
20349;DHT22;10332;50.208;18.988;2023-03-01T06:18:19;-0.60;74.00
20349;DHT22;10332;50.208;18.988;2023-03-01T06:20:53;-0.60;73.50
20349;DHT22;10332;50.208;18.988;2023-03-01T06:23:22;-0.50;73.30
20349;DHT22;10332;50.208;18.988;2023-03-01T06:25:51;-0.50;73.20
20349;DHT22;10332;50.208;18.988;2023-03-01T06:28:19;-0.40;73.20
20349;DHT22;10332;50.208;18.988;2023-03-01T06:30:47;-0.40;71.70
20349;DHT22;10332;50.208;18.988;2023-03-01T06:33:16;-0.50;72.60
20349;DHT22;10332;50.208;18.988;2023-03-01T06:35:43;-0.40;73.00
20349;DHT22;10332;50.208;18.988;2023-03-01T06:38:10;-0.40;72.90
20349;DHT22;10332;50.208;18.988;2023-03-01T06:40:38;-0.30;72.70
20349;DHT22;10332;50.208;18.988;2023-03-01T06:43:05;-0.20;72.00
20349;DHT22;10332;50.208;18.988;2023-03-01T06:45:34;0.00;71.20
20349;DHT22;10332;50.208;18.988;2023-03-01T06:48:06;0.00;70.60
20349;DHT22;10332;50.208;18.988;2023-03-01T06:50:34;0.10;70.20
20349;DHT22;10332;50.208;18.988;2023-03-01T06:53:02;0.10;69.90
20349;DHT22;10332;50.208;18.988;2023-03-01T06:55:30;0.30;69.70
20349;DHT22;10332;50.208;18.988;2023-03-01T06:58:00;0.40;69.00
20349;DHT22;10332;50.208;18.988;2023-03-01T07:00:29;0.50;68.30
20349;DHT22;10332;50.208;18.988;2023-03-01T07:03:01;0.60;67.90
20349;DHT22;10332;50.208;18.988;2023-03-01T07:05:30;0.70;67.20
20349;DHT22;10332;50.208;18.988;2023-03-01T07:07:57;0.80;66.40
20349;DHT22;10332;50.208;18.988;2023-03-01T07:10:25;0.90;65.80
20349;DHT22;10332;50.208;18.988;2023-03-01T07:12:59;1.00;64.90
20349;DHT22;10332;50.208;18.988;2023-03-01T07:15:27;1.10;64.00
20349;DHT22;10332;50.208;18.988;2023-03-01T07:17:56;1.20;61.70
20349;DHT22;10332;50.208;18.988;2023-03-01T07:20:24;1.30;61.40
20349;DHT22;10332;50.208;18.988;2023-03-01T07:22:53;1.40;60.90
20349;DHT22;10332;50.208;18.988;2023-03-01T07:25:22;1.50;60.60
20349;DHT22;10332;50.208;18.988;2023-03-01T07:27:51;1.60;60.00
20349;DHT22;10332;50.208;18.988;2023-03-01T07:30:20;1.70;59.30
20349;DHT22;10332;50.208;18.988;2023-03-01T07:32:49;1.90;58.40
20349;DHT22;10332;50.208;18.988;2023-03-01T07:35:17;2.00;57.30
20349;DHT22;10332;50.208;18.988;2023-03-01T07:37:44;2.10;56.80
20349;DHT22;10332;50.208;18.988;2023-03-01T07:40:12;2.20;53.10
20349;DHT22;10332;50.208;18.988;2023-03-01T07:42:40;2.30;52.60
20349;DHT22;10332;50.208;18.988;2023-03-01T07:45:08;2.30;51.90
20349;DHT22;10332;50.208;18.988;2023-03-01T07:47:36;2.40;49.60
20349;DHT22;10332;50.208;18.988;2023-03-01T07:50:04;2.40;50.60
20349;DHT22;10332;50.208;18.988;2023-03-01T07:52:32;2.50;48.80
20349;DHT22;10332;50.208;18.988;2023-03-01T07:54:59;2.70;49.20
20349;DHT22;10332;50.208;18.988;2023-03-01T07:57:27;3.00;49.20
20349;DHT22;10332;50.208;18.988;2023-03-01T07:59:54;3.40;44.90
20349;DHT22;10332;50.208;18.988;2023-03-01T08:02:22;3.80;42.10
20349;DHT22;10332;50.208;18.988;2023-03-01T08:04:49;6.30;34.90
20349;DHT22;10332;50.208;18.988;2023-03-01T08:07:16;10.30;15.70
20349;DHT22;10332;50.208;18.988;2023-03-01T08:09:44;13.90;1.00
20349;DHT22;10332;50.208;18.988;2023-03-01T08:12:11;17.00;1.00
20349;DHT22;10332;50.208;18.988;2023-03-01T08:14:39;19.60;1.00
20349;DHT22;10332;50.208;18.988;2023-03-01T08:17:06;21.60;1.00
20349;DHT22;10332;50.208;18.988;2023-03-01T08:19:34;23.40;1.00
20349;DHT22;10332;50.208;18.988;2023-03-01T08:22:02;25.00;1.00
20349;DHT22;10332;50.208;18.988;2023-03-01T08:24:30;26.30;1.00
20349;DHT22;10332;50.208;18.988;2023-03-01T08:26:57;27.50;1.00
20349;DHT22;10332;50.208;18.988;2023-03-01T08:29:25;28.60;1.00
20349;DHT22;10332;50.208;18.988;2023-03-01T08:31:52;29.40;1.00
20349;DHT22;10332;50.208;18.988;2023-03-01T08:34:20;29.90;1.00
20349;DHT22;10332;50.208;18.988;2023-03-01T08:36:47;30.60;1.00
20349;DHT22;10332;50.208;18.988;2023-03-01T08:39:17;31.20;1.00
20349;DHT22;10332;50.208;18.988;2023-03-01T08:41:46;31.70;1.00
20349;DHT22;10332;50.208;18.988;2023-03-01T08:44:15;32.50;1.00
20349;DHT22;10332;50.208;18.988;2023-03-01T08:46:44;33.40;1.00
20349;DHT22;10332;50.208;18.988;2023-03-01T08:49:21;34.10;1.00
20349;DHT22;10332;50.208;18.988;2023-03-01T08:51:49;34.90;1.00
20349;DHT22;10332;50.208;18.988;2023-03-01T08:54:19;35.50;1.00
20349;DHT22;10332;50.208;18.988;2023-03-01T08:56:48;35.80;1.00
20349;DHT22;10332;50.208;18.988;2023-03-01T08:59:17;36.20;1.00
20349;DHT22;10332;50.208;18.988;2023-03-01T09:01:45;37.00;1.00
20349;DHT22;10332;50.208;18.988;2023-03-01T09:04:14;37.50;1.00
20349;DHT22;10332;50.208;18.988;2023-03-01T09:06:42;38.30;1.00
20349;DHT22;10332;50.208;18.988;2023-03-01T09:09:14;38.70;1.00
20349;DHT22;10332;50.208;18.988;2023-03-01T09:11:44;38.90;1.00
20349;DHT22;10332;50.208;18.988;2023-03-01T09:14:17;38.80;1.00
20349;DHT22;10332;50.208;18.988;2023-03-01T09:16:44;38.50;1.00
20349;DHT22;10332;50.208;18.988;2023-03-01T09:19:12;38.20;1.00
20349;DHT22;10332;50.208;18.988;2023-03-01T09:21:40;38.30;1.00
20349;DHT22;10332;50.208;18.988;2023-03-01T09:24:18;38.30;1.00
20349;DHT22;10332;50.208;18.988;2023-03-01T09:26:49;38.30;1.00
20349;DHT22;10332;50.208;18.988;2023-03-01T09:29:17;38.40;1.00
20349;DHT22;10332;50.208;18.988;2023-03-01T09:31:45;38.30;1.00
20349;DHT22;10332;50.208;18.988;2023-03-01T09:34:13;39.20;1.00
20349;DHT22;10332;50.208;18.988;2023-03-01T09:36:43;39.70;1.00
20349;DHT22;10332;50.208;18.988;2023-03-01T09:39:10;40.10;1.00
20349;DHT22;10332;50.208;18.988;2023-03-01T09:42:20;40.10;1.00
20349;DHT22;10332;50.208;18.988;2023-03-01T09:44:47;40.60;1.00
20349;DHT22;10332;50.208;18.988;2023-03-01T09:47:24;41.80;1.00
20349;DHT22;10332;50.208;18.988;2023-03-01T09:49:58;42.40;1.00
20349;DHT22;10332;50.208;18.988;2023-03-01T09:52:42;42.90;1.00
20349;DHT22;10332;50.208;18.988;2023-03-01T09:55:20;43.10;1.00
20349;DHT22;10332;50.208;18.988;2023-03-01T10:01:28;42.80;1.00
20349;DHT22;10332;50.208;18.988;2023-03-01T10:04:45;43.10;1.00
20349;DHT22;10332;50.208;18.988;2023-03-01T10:10:28;44.80;1.00
20349;DHT22;10332;50.208;18.988;2023-03-01T10:13:09;45.90;1.00
20349;DHT22;10332;50.208;18.988;2023-03-01T10:19:03;47.20;1.00
20349;DHT22;10332;50.208;18.988;2023-03-01T10:21:38;47.90;1.00
20349;DHT22;10332;50.208;18.988;2023-03-01T10:24:13;47.50;1.00
20349;DHT22;10332;50.208;18.988;2023-03-01T10:26:57;47.20;1.00
20349;DHT22;10332;50.208;18.988;2023-03-01T10:29:35;47.20;1.00
20349;DHT22;10332;50.208;18.988;2023-03-01T10:32:10;47.30;1.00
20349;DHT22;10332;50.208;18.988;2023-03-01T10:34:38;47.70;1.00
20349;DHT22;10332;50.208;18.988;2023-03-01T10:37:24;47.60;1.00
20349;DHT22;10332;50.208;18.988;2023-03-01T10:42:36;47.60;1.00
20349;DHT22;10332;50.208;18.988;2023-03-01T10:45:33;47.90;1.00
20349;DHT22;10332;50.208;18.988;2023-03-01T10:48:22;47.90;1.00
20349;DHT22;10332;50.208;18.988;2023-03-01T10:53:35;49.10;1.00
20349;DHT22;10332;50.208;18.988;2023-03-01T10:56:08;49.50;1.00
20349;DHT22;10332;50.208;18.988;2023-03-01T10:58:39;49.60;1.00
20349;DHT22;10332;50.208;18.988;2023-03-01T11:01:30;49.80;1.00
20349;DHT22;10332;50.208;18.988;2023-03-01T11:06:35;49.80;1.00
20349;DHT22;10332;50.208;18.988;2023-03-01T11:09:20;49.20;1.00
20349;DHT22;10332;50.208;18.988;2023-03-01T11:11:54;48.60;1.00
20349;DHT22;10332;50.208;18.988;2023-03-01T11:14:27;48.50;1.00
20349;DHT22;10332;50.208;18.988;2023-03-01T11:19:38;48.90;1.00
20349;DHT22;10332;50.208;18.988;2023-03-01T11:22:16;48.60;1.00
20349;DHT22;10332;50.208;18.988;2023-03-01T11:24:50;47.60;1.00
20349;DHT22;10332;50.208;18.988;2023-03-01T11:27:40;47.50;1.00
20349;DHT22;10332;50.208;18.988;2023-03-01T11:33:20;47.70;1.00
20349;DHT22;10332;50.208;18.988;2023-03-01T11:36:32;47.10;1.00
20349;DHT22;10332;50.208;18.988;2023-03-01T11:45:11;46.80;1.00
20349;DHT22;10332;50.208;18.988;2023-03-01T11:50:40;47.00;1.00
20349;DHT22;10332;50.208;18.988;2023-03-01T12:17:33;47.10;1.00
20349;DHT22;10332;50.208;18.988;2023-03-01T12:20:28;47.60;1.00
20349;DHT22;10332;50.208;18.988;2023-03-01T12:32:04;45.80;1.00
20349;DHT22;10332;50.208;18.988;2023-03-01T12:38:06;45.60;1.00
20349;DHT22;10332;50.208;18.988;2023-03-01T12:41:05;45.60;1.00
20349;DHT22;10332;50.208;18.988;2023-03-01T12:44:10;46.30;1.00
20349;DHT22;10332;50.208;18.988;2023-03-01T12:50:17;47.80;1.00
20349;DHT22;10332;50.208;18.988;2023-03-01T12:52:52;47.40;1.00
20349;DHT22;10332;50.208;18.988;2023-03-01T12:55:32;46.40;1.00
20349;DHT22;10332;50.208;18.988;2023-03-01T12:58:26;46.70;1.00
20349;DHT22;10332;50.208;18.988;2023-03-01T13:01:53;47.30;1.00
20349;DHT22;10332;50.208;18.988;2023-03-01T13:04:47;47.20;1.00
20349;DHT22;10332;50.208;18.988;2023-03-01T13:07:38;47.40;1.00
20349;DHT22;10332;50.208;18.988;2023-03-01T13:10:51;48.00;1.00
20349;DHT22;10332;50.208;18.988;2023-03-01T13:13:28;48.30;1.00
20349;DHT22;10332;50.208;18.988;2023-03-01T13:15:56;48.60;1.00
20349;DHT22;10332;50.208;18.988;2023-03-01T13:18:44;48.60;1.00
20349;DHT22;10332;50.208;18.988;2023-03-01T13:21:12;47.90;1.00
20349;DHT22;10332;50.208;18.988;2023-03-01T13:23:40;47.70;1.00
20349;DHT22;10332;50.208;18.988;2023-03-01T13:26:16;47.40;1.00
20349;DHT22;10332;50.208;18.988;2023-03-01T13:44:33;48.00;1.00
20349;DHT22;10332;50.208;18.988;2023-03-01T13:49:58;46.60;1.00
20349;DHT22;10332;50.208;18.988;2023-03-01T13:55:41;44.00;1.00
20349;DHT22;10332;50.208;18.988;2023-03-01T13:58:32;43.50;1.00
20349;DHT22;10332;50.208;18.988;2023-03-01T14:01:26;43.70;1.00
20349;DHT22;10332;50.208;18.988;2023-03-01T14:03:59;43.90;1.00
20349;DHT22;10332;50.208;18.988;2023-03-01T14:06:30;44.20;1.00
20349;DHT22;10332;50.208;18.988;2023-03-01T14:14:51;45.80;1.00
20349;DHT22;10332;50.208;18.988;2023-03-01T14:17:35;45.30;1.00
20349;DHT22;10332;50.208;18.988;2023-03-01T14:20:29;44.20;1.00
20349;DHT22;10332;50.208;18.988;2023-03-01T14:23:02;43.20;1.00
20349;DHT22;10332;50.208;18.988;2023-03-01T14:25:37;43.20;1.00
20349;DHT22;10332;50.208;18.988;2023-03-01T14:30:49;43.10;1.00
20349;DHT22;10332;50.208;18.988;2023-03-01T14:38:38;41.30;1.00
20349;DHT22;10332;50.208;18.988;2023-03-01T14:41:19;41.40;1.00
20349;DHT22;10332;50.208;18.988;2023-03-01T14:43:55;41.30;1.00
20349;DHT22;10332;50.208;18.988;2023-03-01T14:46:36;41.30;1.00
20349;DHT22;10332;50.208;18.988;2023-03-01T14:51:50;41.20;1.00
20349;DHT22;10332;50.208;18.988;2023-03-01T14:54:23;41.10;1.00
20349;DHT22;10332;50.208;18.988;2023-03-01T14:56:57;40.90;1.00
20349;DHT22;10332;50.208;18.988;2023-03-01T14:59:27;40.60;1.00
20349;DHT22;10332;50.208;18.988;2023-03-01T15:01:57;40.40;1.00
20349;DHT22;10332;50.208;18.988;2023-03-01T15:04:26;39.60;1.00
20349;DHT22;10332;50.208;18.988;2023-03-01T15:06:55;38.70;1.00
20349;DHT22;10332;50.208;18.988;2023-03-01T15:09:34;37.50;1.00
20349;DHT22;10332;50.208;18.988;2023-03-01T15:14:57;35.00;1.00
20349;DHT22;10332;50.208;18.988;2023-03-01T15:17:38;34.60;1.00
20349;DHT22;10332;50.208;18.988;2023-03-01T15:20:18;33.90;1.00
20349;DHT22;10332;50.208;18.988;2023-03-01T15:22:49;33.20;1.00
20349;DHT22;10332;50.208;18.988;2023-03-01T15:25:28;32.30;1.00
20349;DHT22;10332;50.208;18.988;2023-03-01T15:27:59;31.50;1.00
20349;DHT22;10332;50.208;18.988;2023-03-01T15:30:33;29.80;1.00
20349;DHT22;10332;50.208;18.988;2023-03-01T15:33:28;27.90;1.00
20349;DHT22;10332;50.208;18.988;2023-03-01T15:36:01;26.00;1.00
20349;DHT22;10332;50.208;18.988;2023-03-01T15:41:21;22.80;1.00
20349;DHT22;10332;50.208;18.988;2023-03-01T15:44:32;21.70;1.00
20349;DHT22;10332;50.208;18.988;2023-03-01T15:47:48;20.50;1.00
20349;DHT22;10332;50.208;18.988;2023-03-01T15:50:28;19.30;1.00
20349;DHT22;10332;50.208;18.988;2023-03-01T15:53:03;18.50;1.00
20349;DHT22;10332;50.208;18.988;2023-03-01T15:55:33;17.80;1.00
20349;DHT22;10332;50.208;18.988;2023-03-01T16:00:40;16.80;1.00
20349;DHT22;10332;50.208;18.988;2023-03-01T16:03:25;16.40;1.00
20349;DHT22;10332;50.208;18.988;2023-03-01T16:05:53;16.00;1.00
20349;DHT22;10332;50.208;18.988;2023-03-01T16:08:21;15.60;1.00
20349;DHT22;10332;50.208;18.988;2023-03-01T16:10:49;15.30;1.00
20349;DHT22;10332;50.208;18.988;2023-03-01T16:13:18;14.90;1.00
20349;DHT22;10332;50.208;18.988;2023-03-01T16:15:46;14.70;1.00
20349;DHT22;10332;50.208;18.988;2023-03-01T16:18:14;14.40;1.00
20349;DHT22;10332;50.208;18.988;2023-03-01T16:20:42;14.10;1.00
20349;DHT22;10332;50.208;18.988;2023-03-01T16:23:11;13.80;1.00
20349;DHT22;10332;50.208;18.988;2023-03-01T16:25:38;13.50;1.00
20349;DHT22;10332;50.208;18.988;2023-03-01T16:28:07;13.30;1.00
20349;DHT22;10332;50.208;18.988;2023-03-01T16:30:39;13.00;1.00
20349;DHT22;10332;50.208;18.988;2023-03-01T16:33:07;12.70;1.00
20349;DHT22;10332;50.208;18.988;2023-03-01T16:35:55;12.50;1.00
20349;DHT22;10332;50.208;18.988;2023-03-01T16:38:24;12.20;1.00
20349;DHT22;10332;50.208;18.988;2023-03-01T16:40:52;11.90;1.00
20349;DHT22;10332;50.208;18.988;2023-03-01T16:43:20;11.60;1.00
20349;DHT22;10332;50.208;18.988;2023-03-01T16:45:47;11.20;1.00
20349;DHT22;10332;50.208;18.988;2023-03-01T16:48:15;11.00;1.00
20349;DHT22;10332;50.208;18.988;2023-03-01T16:50:42;10.80;1.00
20349;DHT22;10332;50.208;18.988;2023-03-01T16:53:10;10.60;1.00
20349;DHT22;10332;50.208;18.988;2023-03-01T16:55:38;10.30;1.00
20349;DHT22;10332;50.208;18.988;2023-03-01T16:58:12;10.10;1.00
20349;DHT22;10332;50.208;18.988;2023-03-01T17:00:40;9.90;1.00
20349;DHT22;10332;50.208;18.988;2023-03-01T17:03:07;9.80;1.00
20349;DHT22;10332;50.208;18.988;2023-03-01T17:05:35;9.60;1.00
20349;DHT22;10332;50.208;18.988;2023-03-01T17:08:03;9.50;1.00
20349;DHT22;10332;50.208;18.988;2023-03-01T17:10:30;9.40;1.00
20349;DHT22;10332;50.208;18.988;2023-03-01T17:13:00;9.30;1.00
20349;DHT22;10332;50.208;18.988;2023-03-01T17:15:27;9.10;1.00
20349;DHT22;10332;50.208;18.988;2023-03-01T17:17:55;8.90;1.00
20349;DHT22;10332;50.208;18.988;2023-03-01T17:20:22;8.80;1.00
20349;DHT22;10332;50.208;18.988;2023-03-01T17:22:50;8.60;1.00
20349;DHT22;10332;50.208;18.988;2023-03-01T17:25:18;8.50;1.00
20349;DHT22;10332;50.208;18.988;2023-03-01T17:27:46;8.40;1.00
20349;DHT22;10332;50.208;18.988;2023-03-01T17:30:14;8.30;1.00
20349;DHT22;10332;50.208;18.988;2023-03-01T17:32:42;8.10;1.00
20349;DHT22;10332;50.208;18.988;2023-03-01T17:35:10;8.10;1.00
20349;DHT22;10332;50.208;18.988;2023-03-01T17:37:39;7.90;1.00
20349;DHT22;10332;50.208;18.988;2023-03-01T17:40:06;7.80;1.00
20349;DHT22;10332;50.208;18.988;2023-03-01T17:42:35;7.70;1.00
20349;DHT22;10332;50.208;18.988;2023-03-01T17:45:02;7.60;1.00
20349;DHT22;10332;50.208;18.988;2023-03-01T17:47:30;7.50;1.00
20349;DHT22;10332;50.208;18.988;2023-03-01T17:49:57;7.40;1.00
20349;DHT22;10332;50.208;18.988;2023-03-01T17:52:26;7.30;1.00
20349;DHT22;10332;50.208;18.988;2023-03-01T17:54:53;7.20;1.00
20349;DHT22;10332;50.208;18.988;2023-03-01T17:57:21;7.20;1.00
20349;DHT22;10332;50.208;18.988;2023-03-01T17:59:48;7.10;1.00
20349;DHT22;10332;50.208;18.988;2023-03-01T18:02:16;7.00;1.00
20349;DHT22;10332;50.208;18.988;2023-03-01T18:04:45;7.00;1.00
20349;DHT22;10332;50.208;18.988;2023-03-01T18:07:13;6.90;1.00
20349;DHT22;10332;50.208;18.988;2023-03-01T18:09:40;6.90;1.00